Time;durP1;ratioP1;P1;durP2;ratioP2;P2;SDS_P1;SDS_P2;PMS_P1;PMS_P2;Temp;Humidity;BMP_temperature;BMP_pressure;BME280_temperature;BME280_humidity;BME280_pressure;Samples;Min_cycle;Max_cycle;Signal;HPM_P1;HPM_P2
2021/10/29 00:01:20;;;;;;;24.60;20.83;;;9.30;94.30;;;;;;5067578;28;20211;-91
2021/10/29 00:03:46;;;;;;;26.57;20.17;;;9.40;93.80;;;;;;5082803;28;20175;-91
2021/10/29 00:06:15;;;;;;;21.60;19.30;;;9.40;93.60;;;;;;5082910;28;20191;-91
2021/10/29 00:08:41;;;;;;;34.20;20.53;;;9.30;94.10;;;;;;5083931;28;20187;-90
2021/10/29 00:11:10;;;;;;;21.57;18.87;;;9.20;94.00;;;;;;5067294;28;20206;-92
2021/10/29 00:13:39;;;;;;;21.17;19.03;;;9.10;94.40;;;;;;5083354;28;20191;-92
2021/10/29 00:16:05;;;;;;;21.43;19.43;;;9.10;95.00;;;;;;5067022;28;20713;-91
2021/10/29 00:18:34;;;;;;;21.83;19.63;;;9.30;94.50;;;;;;5100991;28;20460;-92
2021/10/29 00:21:00;;;;;;;21.40;19.40;;;9.30;94.50;;;;;;5085058;28;20583;-91
2021/10/29 00:23:31;;;;;;;23.43;19.07;;;9.30;94.00;;;;;;5050833;28;20225;-92
2021/10/29 00:26:01;;;;;;;20.20;18.27;;;9.30;93.80;;;;;;5084116;28;20191;-92
2021/10/29 00:28:27;;;;;;;19.90;17.80;;;9.30;94.10;;;;;;5086419;28;20215;-91
2021/10/29 00:30:56;;;;;;;20.87;18.77;;;9.30;94.00;;;;;;5066019;28;20286;-92
2021/10/29 00:33:25;;;;;;;21.90;19.80;;;9.40;94.00;;;;;;5103748;28;20695;-91
2021/10/29 00:35:54;;;;;;;22.63;18.10;;;9.40;93.80;;;;;;5088211;28;20194;-92
2021/10/29 00:38:26;;;;;;;24.63;18.27;;;9.40;93.20;;;;;;5087925;28;20187;-92
2021/10/29 00:40:52;;;;;;;18.90;17.07;;;9.20;93.80;;;;;;5083350;28;20299;-92
2021/10/29 00:43:18;;;;;;;17.77;16.10;;;9.20;93.70;;;;;;5084229;28;20237;-92
2021/10/29 00:45:49;;;;;;;38.63;19.13;;;9.30;93.60;;;;;;5086166;28;20189;-92
2021/10/29 00:48:18;;;;;;;23.27;18.77;;;9.30;92.50;;;;;;5084047;28;20180;-92
2021/10/29 00:50:44;;;;;;;20.13;18.03;;;9.30;93.10;;;;;;5066970;28;21678;-92
2021/10/29 00:53:29;;;;;;;19.30;17.40;;;9.30;93.10;;;;;;5089559;28;20231;-92
2021/10/29 00:55:57;;;;;;;21.33;17.80;;;9.30;93.10;;;;;;5075831;28;20227;-92
2021/10/29 00:58:23;;;;;;;18.90;17.10;;;9.40;92.60;;;;;;5080282;28;20302;-91
2021/10/29 01:00:50;;;;;;;22.03;18.03;;;9.40;92.50;;;;;;5088215;28;20234;-92
2021/10/29 01:03:16;;;;;;;21.77;18.03;;;9.40;92.50;;;;;;5102235;28;20179;-92
2021/10/29 01:05:42;;;;;;;57.80;20.17;;;9.20;92.60;;;;;;5075428;28;20195;-91
2021/10/29 01:08:10;;;;;;;47.00;21.27;;;9.10;93.30;;;;;;5072532;28;20749;-92
2021/10/29 01:10:37;;;;;;;30.53;17.97;;;9.00;93.70;;;;;;5063165;28;20260;-91
2021/10/29 01:13:03;;;;;;;24.03;19.83;;;9.00;94.70;;;;;;5080064;28;20194;-91
2021/10/29 01:15:29;;;;;;;19.13;17.23;;;8.90;94.70;;;;;;5080936;28;20215;-92
2021/10/29 01:17:55;;;;;;;87.67;21.53;;;9.00;94.70;;;;;;5080092;28;20203;-91
2021/10/29 01:20:22;;;;;;;20.37;18.47;;;9.00;93.90;;;;;;5064827;28;20226;-91
2021/10/29 01:22:48;;;;;;;19.13;17.23;;;8.90;95.10;;;;;;5064190;28;20192;-92
2021/10/29 01:25:14;;;;;;;61.87;20.70;;;9.00;95.00;;;;;;5081742;28;20199;-92
2021/10/29 01:27:41;;;;;;;21.83;19.63;;;9.00;93.70;;;;;;5081256;28;20190;-91
2021/10/29 01:30:09;;;;;;;20.87;18.67;;;8.90;94.80;;;;;;5082451;28;20762;-91
2021/10/29 01:32:35;;;;;;;25.43;17.77;;;9.00;95.10;;;;;;5068980;28;20191;-92
2021/10/29 01:35:01;;;;;;;19.37;17.47;;;9.20;94.70;;;;;;5069742;28;20199;-91
2021/10/29 01:37:27;;;;;;;37.63;19.27;;;9.20;94.00;;;;;;5080868;28;20187;-90
2021/10/29 01:39:53;;;;;;;34.23;19.37;;;9.20;93.90;;;;;;5062653;28;20530;-91
2021/10/29 01:42:19;;;;;;;20.63;18.63;;;9.10;93.90;;;;;;5065396;28;20179;-91
2021/10/29 01:44:46;;;;;;;19.57;17.60;;;9.10;94.30;;;;;;5084565;28;20237;-92
2021/10/29 01:47:12;;;;;;;22.77;19.17;;;9.10;94.30;;;;;;5084575;28;20270;-91
2021/10/29 01:49:40;;;;;;;21.20;19.00;;;9.10;93.70;;;;;;5101406;28;20244;-92
2021/10/29 01:52:07;;;;;;;19.83;17.97;;;9.10;94.70;;;;;;5084569;28;20677;-92
2021/10/29 01:54:34;;;;;;;20.93;18.73;;;9.00;94.80;;;;;;5083538;28;20183;-92
2021/10/29 01:57:00;;;;;;;19.90;17.90;;;9.10;94.00;;;;;;5060391;28;20185;-92
2021/10/29 01:59:26;;;;;;;21.53;17.40;;;9.20;94.30;;;;;;5078341;28;20214;-92
2021/10/29 02:01:53;;;;;;;23.90;19.00;;;9.20;94.00;;;;;;5084574;28;20281;-91
2021/10/29 02:04:20;;;;;;;20.80;18.67;;;9.20;93.40;;;;;;5068155;28;20230;-91
2021/10/29 02:06:46;;;;;;;18.83;16.93;;;9.20;93.80;;;;;;5082858;28;20654;-91
2021/10/29 02:09:12;;;;;;;23.07;17.43;;;9.10;94.00;;;;;;5065296;28;20405;-92
2021/10/29 02:11:39;;;;;;;19.43;17.53;;;9.10;94.10;;;;;;5102752;28;20662;-91
2021/10/29 02:14:06;;;;;;;22.47;19.17;;;9.10;93.90;;;;;;5070253;28;20214;-91
2021/10/29 02:16:32;;;;;;;24.17;17.63;;;8.90;94.30;;;;;;5058000;28;20255;-91
2021/10/29 02:18:58;;;;;;;21.73;17.40;;;9.00;94.70;;;;;;5067369;28;20190;-92
2021/10/29 02:21:24;;;;;;;21.13;18.13;;;8.90;94.40;;;;;;5062043;28;20298;-92
2021/10/29 02:23:50;;;;;;;19.30;17.30;;;8.70;95.40;;;;;;5082208;28;20203;-92
2021/10/29 02:26:16;;;;;;;21.03;18.80;;;8.80;95.60;;;;;;5102618;28;20199;-91
2021/10/29 02:28:41;;;;;;;19.23;17.43;;;8.90;95.40;;;;;;5085183;28;20196;-91
2021/10/29 02:31:07;;;;;;;22.13;17.73;;;8.90;94.80;;;;;;5078873;28;20192;-91
2021/10/29 02:33:33;;;;;;;19.07;17.07;;;9.00;95.30;;;;;;5068801;28;20190;-92
2021/10/29 02:35:59;;;;;;;17.80;16.03;;;8.90;93.90;;;;;;5068426;28;20183;-92
2021/10/29 02:38:25;;;;;;;20.23;18.23;;;8.80;94.30;;;;;;5083682;28;20209;-92
2021/10/29 02:40:52;;;;;;;41.10;19.53;;;8.90;94.40;;;;;;5050997;28;20700;-92
2021/10/29 02:43:18;;;;;;;16.67;14.97;;;8.70;93.80;;;;;;5083182;28;20406;-91
2021/10/29 02:45:44;;;;;;;26.00;17.73;;;8.70;95.20;;;;;;5082948;28;20205;-91
2021/10/29 02:48:10;;;;;;;20.83;16.77;;;8.70;94.60;;;;;;5066857;28;20197;-91
2021/10/29 02:50:35;;;;;;;19.63;17.63;;;8.60;95.30;;;;;;5065045;28;20298;-91
2021/10/29 02:53:04;;;;;;;17.63;15.90;;;8.60;95.20;;;;;;5102112;28;20195;-90
2021/10/29 02:55:30;;;;;;;29.20;16.83;;;8.70;94.50;;;;;;5101427;28;20210;-91
2021/10/29 02:57:56;;;;;;;21.30;16.93;;;8.70;94.40;;;;;;5064978;28;20187;-91
2021/10/29 03:00:21;;;;;;;28.40;17.20;;;8.70;95.10;;;;;;5068518;28;20221;-91
2021/10/29 03:02:47;;;;;;;44.77;16.30;;;8.60;94.60;;;;;;5079559;28;20683;-91
2021/10/29 03:05:14;;;;;;;16.73;15.03;;;8.60;94.50;;;;;;5046601;28;20274;-91
2021/10/29 03:07:40;;;;;;;18.73;16.53;;;8.50;95.50;;;;;;5098003;28;20685;-91
2021/10/29 03:10:08;;;;;;;16.53;14.93;;;8.40;95.10;;;;;;5066955;28;20214;-92
2021/10/29 03:12:34;;;;;;;17.03;14.67;;;8.50;95.10;;;;;;5065152;28;20183;-91
2021/10/29 03:15:01;;;;;;;26.37;16.37;;;8.60;94.80;;;;;;5049857;28;20193;-91
2021/10/29 03:17:27;;;;;;;29.80;16.20;;;8.50;94.40;;;;;;5082266;28;20182;-91
2021/10/29 03:19:53;;;;;;;17.93;16.13;;;8.30;95.20;;;;;;5066192;28;20689;-91
2021/10/29 03:22:18;;;;;;;17.77;16.00;;;8.40;95.90;;;;;;5085459;28;20194;-91
2021/10/29 03:24:44;;;;;;;19.17;17.17;;;8.40;95.50;;;;;;5087226;28;20190;-91
2021/10/29 03:27:10;;;;;;;53.50;17.07;;;8.50;94.90;;;;;;5071093;28;20213;-91
2021/10/29 03:29:38;;;;;;;17.73;15.80;;;8.50;95.50;;;;;;5092309;28;20649;-92
2021/10/29 03:32:04;;;;;;;24.20;21.43;;;8.60;95.10;;;;;;5067156;28;20206;-92
2021/10/29 03:34:30;;;;;;;17.50;15.80;;;8.70;95.60;;;;;;5079394;28;20642;-91
2021/10/29 03:36:56;;;;;;;20.50;17.17;;;8.70;95.20;;;;;;5049554;28;20190;-91
2021/10/29 03:41:54;;;;;;;18.73;16.77;;;8.80;94.00;;;;;;5079625;28;20233;-91
2021/10/29 03:44:28;;;;;;;21.37;16.27;;;8.90;94.10;;;;;;5065067;28;20187;-91
2021/10/29 03:46:56;;;;;;;23.07;16.97;;;8.90;93.90;;;;;;5066031;28;20187;-91
2021/10/29 03:51:56;;;;;;;25.97;16.67;;;8.80;94.30;;;;;;5083592;28;20218;-91
2021/10/29 03:54:27;;;;;;;18.07;15.90;;;8.70;94.10;;;;;;5101735;28;20198;-91
2021/10/29 03:59:30;;;;;;;16.53;14.83;;;8.70;95.10;;;;;;5121379;28;20174;-92
2021/10/29 04:01:57;;;;;;;17.90;15.63;;;8.70;95.40;;;;;;5112453;28;20199;-91
2021/10/29 04:04:22;;;;;;;17.37;15.57;;;8.70;95.00;;;;;;5073327;28;20187;-91
2021/10/29 04:06:48;;;;;;;26.40;16.47;;;8.70;95.20;;;;;;5087917;28;20182;-91
2021/10/29 04:09:15;;;;;;;17.87;16.07;;;8.70;94.60;;;;;;5086322;28;20213;-92
2021/10/29 04:11:41;;;;;;;17.77;15.97;;;8.70;94.70;;;;;;5084153;28;20231;-91
2021/10/29 04:14:10;;;;;;;17.63;15.83;;;8.70;94.80;;;;;;5070641;28;20205;-91
2021/10/29 04:16:37;;;;;;;17.67;15.97;;;8.80;94.70;;;;;;5086836;28;20191;-91
2021/10/29 04:19:04;;;;;;;17.27;15.57;;;8.90;94.40;;;;;;5069709;28;20215;-92
2021/10/29 04:21:30;;;;;;;26.03;17.10;;;8.90;94.40;;;;;;5104233;28;20213;-92
2021/10/29 04:23:56;;;;;;;32.13;17.90;;;8.90;94.40;;;;;;5086590;28;20195;-92
2021/10/29 04:26:22;;;;;;;26.17;17.23;;;8.70;94.80;;;;;;5102749;28;20211;-92
2021/10/29 04:28:54;;;;;;;23.50;17.27;;;8.80;95.20;;;;;;5104496;28;20187;-91
2021/10/29 04:31:22;;;;;;;38.77;18.00;;;8.80;94.90;;;;;;5075334;28;20191;-92
2021/10/29 04:33:50;;;;;;;112.17;20.03;;;8.60;94.80;;;;;;5099932;28;20179;-92
2021/10/29 04:36:16;;;;;;;19.20;15.43;;;8.30;95.10;;;;;;5085109;28;20178;-90
2021/10/29 04:38:41;;;;;;;18.20;16.13;;;8.00;97.30;;;;;;5087729;28;20187;-90
2021/10/29 04:41:08;;;;;;;18.63;16.63;;;8.10;98.70;;;;;;5081668;28;20222;-91
2021/10/29 04:43:34;;;;;;;59.57;17.40;;;8.20;97.80;;;;;;5085613;28;20198;-91
2021/10/29 04:45:59;;;;;;;43.87;16.50;;;8.10;97.40;;;;;;5085593;28;20175;-91
2021/10/29 04:48:25;;;;;;;80.27;17.93;;;8.10;97.30;;;;;;5111844;28;20222;-90
2021/10/29 04:50:51;;;;;;;19.53;14.80;;;7.90;97.70;;;;;;5085566;28;20225;-89
2021/10/29 04:53:17;;;;;;;24.03;14.57;;;7.90;98.80;;;;;;5102216;28;20187;-89
2021/10/29 04:55:43;;;;;;;29.37;14.07;;;7.80;97.90;;;;;;5086246;28;20190;-89
2021/10/29 04:58:09;;;;;;;23.10;12.20;;;7.90;98.20;;;;;;5104898;28;20200;-90
2021/10/29 05:00:36;;;;;;;13.57;11.60;;;7.90;96.60;;;;;;5101281;28;20232;-89
2021/10/29 05:03:05;;;;;;;12.97;11.70;;;7.80;97.10;;;;;;5103782;28;20193;-90
2021/10/29 05:05:31;;;;;;;12.83;11.03;;;8.00;96.50;;;;;;5088217;28;20195;-90
2021/10/29 05:07:57;;;;;;;21.33;11.77;;;8.10;96.10;;;;;;5064656;28;20249;-90
2021/10/29 05:10:23;;;;;;;11.63;10.53;;;8.20;95.40;;;;;;5074396;28;20190;-90
2021/10/29 05:12:49;;;;;;;13.30;11.50;;;8.20;95.80;;;;;;5078154;28;20187;-89
2021/10/29 05:15:19;;;;;;;34.87;17.80;;;8.10;95.10;;;;;;5103494;28;20218;-89
2021/10/29 05:17:46;;;;;;;30.83;17.13;;;8.00;95.80;;;;;;5093214;28;20185;-89
2021/10/29 05:20:13;;;;;;;13.17;11.87;;;8.00;96.20;;;;;;5085649;28;20252;-90
2021/10/29 05:22:39;;;;;;;36.73;13.17;;;8.10;96.30;;;;;;5092783;28;20280;-89
2021/10/29 05:25:06;;;;;;;34.13;15.70;;;8.00;94.90;;;;;;5099757;28;20795;-89
2021/10/29 05:27:32;;;;;;;24.40;13.10;;;8.00;95.90;;;;;;5081438;28;20195;-90
2021/10/29 05:29:58;;;;;;;20.07;12.13;;;8.00;96.00;;;;;;5065451;28;20217;-90
2021/10/29 05:32:23;;;;;;;37.60;12.83;;;7.90;96.70;;;;;;5062842;28;20192;-89
2021/10/29 05:34:49;;;;;;;12.90;11.70;;;7.80;95.70;;;;;;5076099;28;20199;-89
2021/10/29 05:37:15;;;;;;;16.10;12.70;;;7.80;97.10;;;;;;5049852;28;20195;-89
2021/10/29 05:39:40;;;;;;;12.17;11.03;;;8.00;96.00;;;;;;5093589;28;20200;-89
2021/10/29 05:42:06;;;;;;;12.97;11.37;;;7.90;95.40;;;;;;5075018;28;20194;-90
2021/10/29 05:44:32;;;;;;;13.97;12.27;;;8.00;95.90;;;;;;5080465;28;20183;-89
2021/10/29 05:46:58;;;;;;;12.40;11.10;;;7.90;95.60;;;;;;5051163;28;20187;-89
2021/10/29 05:49:24;;;;;;;22.83;11.80;;;8.00;95.60;;;;;;5098762;28;20194;-89
2021/10/29 05:51:53;;;;;;;32.07;12.03;;;8.00;96.20;;;;;;5082012;28;20211;-89
2021/10/29 05:57:12;;;;;;;31.47;11.53;;;8.00;95.00;;;;;;5068704;28;20205;-89
2021/10/29 05:59:37;;;;;;;21.37;11.43;;;8.00;94.50;;;;;;5062236;28;20282;-90
2021/10/29 06:02:04;;;;;;;12.40;11.10;;;7.80;94.70;;;;;;5074503;28;20260;-90
2021/10/29 06:04:30;;;;;;;24.03;13.10;;;7.70;95.10;;;;;;5099812;28;20273;-90
2021/10/29 06:06:57;;;;;;;13.30;12.00;;;7.70;95.50;;;;;;5090329;28;20182;-90
2021/10/29 06:09:23;;;;;;;22.83;13.00;;;7.70;96.50;;;;;;5068718;28;20191;-90
2021/10/29 06:11:49;;;;;;;24.37;12.10;;;7.90;96.20;;;;;;5062544;28;20921;-90
2021/10/29 06:14:15;;;;;;;22.10;17.20;;;7.70;95.90;;;;;;5047763;28;20200;-90
2021/10/29 06:16:41;;;;;;;19.00;11.63;;;7.70;96.50;;;;;;5080327;28;20187;-90
2021/10/29 06:19:07;;;;;;;12.77;11.47;;;7.70;96.40;;;;;;5100215;28;20239;-90
2021/10/29 06:21:39;;;;;;;13.63;12.33;;;7.80;96.90;;;;;;5083732;28;20211;-90
2021/10/29 06:24:14;;;;;;;15.73;12.37;;;7.90;96.60;;;;;;5098367;28;20194;-90
2021/10/29 06:28:11;;;;;;;26.03;13.33;;;8.00;95.80;;;;;;5099138;28;20186;-90
2021/10/29 06:29:29;;;;;;;18.67;11.53;;;8.10;94.60;;;;;;5086057;28;20554;-90
2021/10/29 06:31:55;;;;;;;22.67;13.97;;;8.10;95.00;;;;;;5100906;28;20210;-90
2021/10/29 06:34:21;;;;;;;26.57;16.50;;;8.10;95.00;;;;;;5063722;28;20188;-89
2021/10/29 06:36:48;;;;;;;14.20;11.80;;;8.20;95.20;;;;;;5059720;28;20213;-90
2021/10/29 06:39:15;;;;;;;22.77;12.70;;;8.10;94.60;;;;;;5098047;28;20190;-90
2021/10/29 06:41:41;;;;;;;14.20;12.70;;;8.00;95.60;;;;;;5079084;28;20214;-90
2021/10/29 06:44:22;;;;;;;24.37;13.10;;;8.10;95.80;;;;;;5095314;28;20198;-90
2021/10/29 06:47:22;;;;;;;26.57;13.03;;;8.10;95.90;;;;;;5064535;28;20202;-90
2021/10/29 07:41:28;;;;;;;9.20;8.30;;;7.80;92.40;;;;;;5104800;28;20248;-90
2021/10/29 07:43:59;;;;;;;14.03;12.80;;;7.70;93.20;;;;;;5059491;28;20569;-89
2021/10/29 07:46:25;;;;;;;11.63;9.50;;;7.80;93.70;;;;;;5070271;28;20194;-90
2021/10/29 07:48:50;;;;;;;10.73;9.67;;;7.80;94.20;;;;;;5069057;28;20191;-90
2021/10/29 07:51:18;;;;;;;11.63;9.63;;;7.70;93.40;;;;;;5068772;28;20210;-90
2021/10/29 07:53:44;;;;;;;10.63;9.53;;;7.80;93.80;;;;;;5086315;28;20195;-89
2021/10/29 07:56:10;;;;;;;15.57;11.30;;;7.90;93.60;;;;;;5103797;27;20182;-91
2021/10/29 07:58:36;;;;;;;13.60;12.17;;;8.00;93.00;;;;;;5117231;27;20175;-90
2021/10/29 08:01:03;;;;;;;13.13;11.73;;;7.90;92.60;;;;;;5086782;28;20251;-90
2021/10/29 08:03:29;;;;;;;18.70;12.67;;;7.90;93.70;;;;;;5111844;27;20291;-93
2021/10/29 08:05:55;;;;;;;14.03;11.43;;;7.90;93.50;;;;;;5122911;27;20204;-92
2021/10/29 08:08:21;;;;;;;13.07;9.97;;;7.80;93.40;;;;;;5096838;28;20190;-91
2021/10/29 08:10:48;;;;;;;12.13;10.43;;;7.90;93.60;;;;;;5081659;28;20213;-90
2021/10/29 08:13:14;;;;;;;12.27;11.00;;;8.00;93.20;;;;;;5096883;27;20171;-92
2021/10/29 08:15:42;;;;;;;15.87;13.80;;;7.90;93.20;;;;;;5104976;28;20171;-92
2021/10/29 08:18:09;;;;;;;12.87;11.47;;;8.00;92.30;;;;;;5111647;27;20554;-90
2021/10/29 08:20:37;;;;;;;10.57;9.47;;;8.00;92.10;;;;;;5068920;28;20223;-90
2021/10/29 08:23:05;;;;;;;9.47;8.57;;;8.00;91.80;;;;;;5068815;28;20191;-90
2021/10/29 08:25:31;;;;;;;23.87;11.77;;;8.00;92.00;;;;;;5069227;28;20209;-91
2021/10/29 08:27:58;;;;;;;15.33;10.73;;;8.20;91.90;;;;;;5073070;28;20194;-90
2021/10/29 08:30:24;;;;;;;13.10;10.43;;;8.20;91.60;;;;;;5086294;28;20625;-90
2021/10/29 08:32:51;;;;;;;25.00;11.47;;;8.10;92.20;;;;;;5087853;28;20179;-90
2021/10/29 08:35:18;;;;;;;19.17;10.67;;;8.00;91.70;;;;;;5099888;28;20216;-92
2021/10/29 08:37:47;;;;;;;11.03;9.90;;;7.80;93.60;;;;;;5100721;28;20171;-91
2021/10/29 08:40:13;;;;;;;10.97;9.87;;;7.80;94.10;;;;;;5114873;28;20210;-91
2021/10/29 08:42:39;;;;;;;20.67;12.57;;;7.80;94.00;;;;;;5083327;28;20179;-91
2021/10/29 08:45:08;;;;;;;11.93;10.17;;;7.90;94.40;;;;;;5101217;28;20244;-91
2021/10/29 08:47:39;;;;;;;10.73;9.73;;;7.90;94.70;;;;;;5082508;28;20187;-90
2021/10/29 08:50:08;;;;;;;49.17;12.40;;;8.00;94.10;;;;;;5082104;28;20233;-91
2021/10/29 08:52:34;;;;;;;28.27;12.63;;;8.00;93.50;;;;;;5101140;28;20285;-90
2021/10/29 08:55:01;;;;;;;17.60;10.83;;;8.10;95.00;;;;;;5065771;28;20612;-91
2021/10/29 08:57:28;;;;;;;11.97;10.67;;;8.00;94.90;;;;;;5053057;28;20194;-91
2021/10/29 08:59:55;;;;;;;38.40;11.93;;;8.10;94.00;;;;;;5064041;28;20617;-90
2021/10/29 09:02:31;;;;;;;21.87;11.67;;;8.00;94.40;;;;;;5097759;28;20187;-90
2021/10/29 09:32:36;;;;;;;30.40;14.10;;;8.30;94.60;;;;;;5097913;28;20259;-90
2021/10/29 09:35:03;;;;;;;16.13;12.67;;;8.30;94.20;;;;;;5079909;28;20401;-91
2021/10/29 09:37:36;;;;;;;13.60;12.20;;;8.10;95.30;;;;;;5078559;28;20190;-90
2021/10/29 09:40:13;;;;;;;25.83;12.37;;;8.20;96.10;;;;;;5098641;28;20286;-91
2021/10/29 09:42:40;;;;;;;15.33;12.73;;;8.20;94.10;;;;;;5080119;28;20179;-91
2021/10/29 09:45:16;;;;;;;12.33;11.03;;;8.20;94.50;;;;;;5078644;28;20603;-91
2021/10/29 09:47:48;;;;;;;27.80;14.13;;;8.40;93.70;;;;;;5080078;28;20520;-93
2021/10/29 09:50:24;;;;;;;24.07;14.17;;;8.40;93.20;;;;;;5097531;28;20253;-91
2021/10/29 09:58:15;;;;;;;18.13;15.47;;;8.10;95.90;;;;;;5099218;28;20191;-91
2021/10/29 10:00:41;;;;;;;15.43;13.83;;;8.10;96.10;;;;;;5099511;28;20708;-90
2021/10/29 10:03:09;;;;;;;14.83;13.33;;;8.10;95.70;;;;;;5075497;28;20194;-91
2021/10/29 10:05:36;;;;;;;15.33;13.73;;;8.40;94.30;;;;;;5070367;28;20192;-90
2021/10/29 10:08:02;;;;;;;16.33;13.60;;;8.60;93.60;;;;;;5074750;28;20855;-91
2021/10/29 10:10:29;;;;;;;14.93;13.33;;;8.60;93.70;;;;;;5061481;28;20211;-92
2021/10/29 10:12:58;;;;;;;16.33;13.33;;;8.80;94.20;;;;;;5099823;28;20653;-92
2021/10/29 10:15:25;;;;;;;15.60;13.97;;;8.90;93.20;;;;;;5081226;28;20191;-91
2021/10/29 10:17:52;;;;;;;23.50;20.40;;;8.90;92.10;;;;;;5079225;28;20212;-90
2021/10/29 10:20:20;;;;;;;19.67;16.00;;;8.90;91.70;;;;;;5081210;28;20215;-90
2021/10/29 10:22:50;;;;;;;15.23;13.63;;;9.00;90.90;;;;;;5075463;28;20191;-91
2021/10/29 10:25:47;;;;;;;15.50;13.90;;;9.00;90.90;;;;;;5095828;28;20327;-91
2021/10/29 10:47:03;;;;;;;18.87;16.07;;;9.20;91.80;;;;;;5074967;28;20226;-90
2021/10/29 10:49:50;;;;;;;18.27;16.37;;;9.10;92.30;;;;;;5090235;28;20194;-90
2021/10/29 10:52:32;;;;;;;18.10;16.20;;;9.20;91.40;;;;;;5113379;28;20201;-91
2021/10/29 10:55:12;;;;;;;20.53;18.47;;;9.30;90.40;;;;;;5080628;28;20195;-91
2021/10/29 11:06:00;;;;;;;19.80;17.67;;;9.60;90.20;;;;;;5092464;28;20209;-91
2021/10/29 11:11:06;;;;;;;21.53;19.03;;;9.80;89.00;;;;;;5089397;28;20215;-91
2021/10/29 11:13:44;;;;;;;21.93;19.13;;;9.70;89.50;;;;;;5072258;28;20630;-90
2021/10/29 11:16:17;;;;;;;21.57;19.40;;;9.80;88.70;;;;;;5094634;28;20191;-91
2021/10/29 11:18:55;;;;;;;20.13;17.93;;;9.60;90.00;;;;;;5098781;28;20196;-90
2021/10/29 11:21:45;;;;;;;23.00;20.53;;;9.70;89.60;;;;;;5080695;28;20215;-90
2021/10/29 11:24:13;;;;;;;24.17;19.57;;;9.50;89.90;;;;;;5062553;28;20305;-91
2021/10/29 11:26:48;;;;;;;23.03;20.27;;;9.50;91.10;;;;;;5093559;28;20270;-91
2021/10/29 11:29:16;;;;;;;21.73;19.43;;;9.50;90.40;;;;;;5058881;28;20662;-90
2021/10/29 11:31:51;;;;;;;22.70;20.40;;;9.70;90.70;;;;;;5077115;28;20235;-91
2021/10/29 11:34:18;;;;;;;23.77;21.27;;;9.80;89.80;;;;;;5094760;28;20267;-91
2021/10/29 11:36:51;;;;;;;22.87;20.47;;;9.50;91.10;;;;;;5096155;28;20175;-91
2021/10/29 11:39:35;;;;;;;25.93;22.17;;;9.40;92.20;;;;;;5095353;28;20774;-90
2021/10/29 11:42:01;;;;;;;23.97;21.43;;;9.60;91.60;;;;;;5095532;28;20282;-90
2021/10/29 11:44:27;;;;;;;25.43;22.93;;;9.80;90.30;;;;;;5059325;28;20440;-90
2021/10/29 11:46:55;;;;;;;23.17;20.73;;;9.80;89.60;;;;;;5043006;28;20191;-90
2021/10/29 11:49:27;;;;;;;27.50;24.70;;;9.80;89.90;;;;;;5094441;28;20177;-90
2021/10/29 11:51:58;;;;;;;27.83;24.50;;;9.90;89.40;;;;;;5050612;28;20287;-91
2021/10/29 11:54:28;;;;;;;25.33;22.60;;;9.90;89.70;;;;;;5062422;28;20188;-90
2021/10/29 12:07:32;;;;;;;23.50;21.10;;;9.80;90.70;;;;;;5097360;28;20185;-90
2021/10/29 12:10:04;;;;;;;24.97;22.30;;;9.80;91.80;;;;;;5096495;28;20186;-91
2021/10/29 12:12:35;;;;;;;26.80;23.90;;;9.90;90.80;;;;;;5095375;28;20187;-89
2021/10/29 12:15:09;;;;;;;25.40;22.77;;;9.90;91.00;;;;;;5096262;28;20738;-90
2021/10/29 12:17:54;;;;;;;26.50;23.70;;;9.90;91.40;;;;;;5080925;28;20187;-90
2021/10/29 12:20:30;;;;;;;28.97;25.77;;;10.00;90.70;;;;;;5081084;28;20322;-91
2021/10/29 12:23:00;;;;;;;26.63;23.90;;;10.00;90.80;;;;;;5047527;28;20238;-91
2021/10/29 12:26:05;;;;;;;25.70;22.93;;;10.20;90.00;;;;;;5069045;28;20212;-91
2021/10/29 12:53:04;;;;;;;26.63;23.83;;;10.50;89.60;;;;;;5104663;28;20187;-91
2021/10/29 13:04:09;;;;;;;29.23;26.23;;;10.90;87.70;;;;;;5100908;28;20250;-91
2021/10/29 13:06:47;;;;;;;28.97;25.97;;;11.10;86.90;;;;;;5082614;28;20197;-91
2021/10/29 13:09:17;;;;;;;30.33;27.20;;;11.10;86.00;;;;;;5110235;28;20199;-91
2021/10/29 13:11:56;;;;;;;28.43;25.60;;;11.10;86.10;;;;;;5110691;28;20200;-91
2021/10/29 13:14:54;;;;;;;30.73;27.47;;;11.00;86.90;;;;;;5112293;28;20204;-91
2021/10/29 13:17:20;;;;;;;28.63;25.90;;;10.70;88.10;;;;;;5088701;28;20220;-91
2021/10/29 13:27:41;;;;;;;28.00;25.00;;;11.30;86.20;;;;;;5119024;28;20170;-91
2021/10/29 13:51:57;;;;;;;25.53;22.93;;;14.80;73.10;;;;;;5105664;28;20731;-91
2021/10/29 13:54:39;;;;;;;23.57;21.23;;;14.90;72.00;;;;;;5075804;28;20207;-91
2021/10/29 14:32:15;;;;;;;23.10;20.80;;;13.70;76.30;;;;;;5098871;28;20568;-90
2021/10/29 14:34:45;;;;;;;22.13;20.13;;;13.70;76.40;;;;;;5098271;28;20187;-90
2021/10/29 14:40:04;;;;;;;22.50;20.17;;;13.90;77.50;;;;;;5078275;28;20195;-90
2021/10/29 14:42:43;;;;;;;21.33;19.33;;;14.40;74.20;;;;;;5083263;28;20646;-90
2021/10/29 14:45:15;;;;;;;23.10;20.90;;;14.40;73.90;;;;;;5100541;28;20286;-90
2021/10/29 15:51:46;;;;;;;27.80;23.97;;;12.50;82.30;;;;;;5103213;28;20207;-88
2021/10/29 15:54:12;;;;;;;26.37;23.63;;;12.30;82.90;;;;;;5083576;28;20200;-88
2021/10/29 15:56:46;;;;;;;26.60;23.80;;;12.00;84.30;;;;;;5088189;28;20465;-87
2021/10/29 16:02:03;;;;;;;26.60;24.00;;;11.80;85.00;;;;;;5103057;28;20260;-88
2021/10/29 16:18:10;;;;;;;25.53;23.03;;;11.50;86.70;;;;;;5092476;28;20198;-89
2021/10/29 16:20:36;;;;;;;26.17;23.67;;;11.30;87.00;;;;;;5071024;28;20226;-88
2021/10/29 16:23:03;;;;;;;24.73;22.13;;;11.10;87.50;;;;;;5118157;28;20190;-88
2021/10/29 16:25:35;;;;;;;24.60;22.03;;;11.00;88.20;;;;;;5094432;28;20688;-89
2021/10/29 16:28:04;;;;;;;26.07;23.30;;;11.00;88.00;;;;;;5085753;28;20190;-89
2021/10/29 16:30:32;;;;;;;24.97;22.67;;;11.00;87.90;;;;;;5102586;28;20226;-89
2021/10/29 16:35:30;;;;;;;26.83;24.03;;;11.00;88.20;;;;;;5099187;28;20610;-89
2021/10/29 16:37:56;;;;;;;24.00;21.53;;;11.10;88.30;;;;;;5098971;28;20194;-89
2021/10/29 16:40:23;;;;;;;24.57;21.90;;;11.00;88.50;;;;;;5083798;28;20217;-89
2021/10/29 16:42:49;;;;;;;27.07;24.10;;;10.90;89.50;;;;;;5082001;28;20747;-89
2021/10/29 16:45:18;;;;;;;27.73;24.77;;;10.80;90.70;;;;;;5066556;28;20195;-89
2021/10/29 16:47:44;;;;;;;29.83;26.73;;;10.50;92.20;;;;;;5083938;28;20231;-89
2021/10/29 16:50:11;;;;;;;28.33;25.33;;;10.60;92.50;;;;;;5083950;28;20206;-89
2021/10/29 16:52:38;;;;;;;32.67;25.07;;;10.60;92.40;;;;;;5103035;28;20214;-88
2021/10/29 16:55:06;;;;;;;29.23;25.63;;;10.60;92.50;;;;;;5100243;28;20214;-88
2021/10/29 16:57:32;;;;;;;27.80;24.83;;;10.60;92.50;;;;;;5100855;28;20189;-88
2021/10/29 16:59:58;;;;;;;30.90;26.70;;;10.40;93.80;;;;;;5078952;28;20194;-88
2021/10/29 17:02:23;;;;;;;30.63;24.97;;;10.40;93.60;;;;;;5079935;28;20201;-89
2021/10/29 17:04:52;;;;;;;24.20;21.80;;;10.30;94.40;;;;;;5101015;28;20319;-89
2021/10/29 17:07:19;;;;;;;24.50;22.00;;;10.30;94.00;;;;;;5102704;28;20193;-89
2021/10/29 17:09:45;;;;;;;42.57;37.10;;;10.40;93.80;;;;;;5102878;28;20202;-90
2021/10/29 17:12:11;;;;;;;34.80;31.33;;;10.50;93.50;;;;;;5083400;28;20719;-90
2021/10/29 17:14:37;;;;;;;84.50;55.10;;;10.60;93.10;;;;;;5101118;28;20197;-89
2021/10/29 17:17:05;;;;;;;55.10;36.73;;;10.60;93.20;;;;;;5078479;28;20202;-89
2021/10/29 17:19:31;;;;;;;27.57;24.67;;;10.50;93.00;;;;;;5102054;28;20276;-89
2021/10/29 17:21:57;;;;;;;28.83;25.73;;;10.50;93.00;;;;;;5100099;28;20205;-89
2021/10/29 17:24:23;;;;;;;40.63;27.17;;;10.60;92.80;;;;;;5082719;28;20217;-89
2021/10/29 17:26:49;;;;;;;32.90;22.03;;;10.60;92.80;;;;;;5083196;28;20185;-90
2021/10/29 17:29:16;;;;;;;25.67;21.37;;;10.50;92.90;;;;;;5084510;28;20256;-88
2021/10/29 17:31:42;;;;;;;29.40;21.07;;;10.50;92.80;;;;;;5103153;28;20213;-90
2021/10/29 17:34:09;;;;;;;22.03;19.73;;;10.40;92.60;;;;;;5104705;28;20201;-90
2021/10/29 17:36:34;;;;;;;21.83;19.53;;;10.40;92.80;;;;;;5105956;28;20174;-91
2021/10/29 17:39:00;;;;;;;22.87;20.47;;;10.40;92.40;;;;;;5086207;28;20205;-91
2021/10/29 17:41:27;;;;;;;26.37;21.57;;;10.40;92.70;;;;;;5097538;28;20272;-92
2021/10/29 17:43:53;;;;;;;21.53;19.23;;;10.30;92.70;;;;;;5093063;28;20238;-91
2021/10/29 17:46:19;;;;;;;24.03;21.53;;;10.20;93.40;;;;;;5106323;28;20207;-92
2021/10/29 17:48:45;;;;;;;26.70;22.63;;;10.20;93.30;;;;;;5117626;28;20182;-91
2021/10/29 17:51:11;;;;;;;25.00;22.43;;;10.20;93.10;;;;;;5101022;28;20196;-90
2021/10/29 17:53:37;;;;;;;24.33;20.50;;;10.20;93.10;;;;;;5101381;28;20186;-90
2021/10/29 17:56:05;;;;;;;25.83;20.87;;;10.20;92.60;;;;;;5110269;28;20838;-90
2021/10/29 17:58:31;;;;;;;22.70;20.27;;;10.10;92.90;;;;;;5086093;28;20216;-90
2021/10/29 18:00:57;;;;;;;25.17;21.23;;;9.90;93.50;;;;;;5103331;28;20262;-90